Flight Track Log - Related Links

Times and Time Zones

All times are in EDT time to prevent confusion due to time zone crossing. See the THY2481 flight status page for this flight to view local times or setup timezone preferences in your user account.

Time Position Orientation Groundspeed Altitude Reporting Facility
EDT Latitude Longitude Course Direction KTS MPH feet Rate Location/Type
Sun 06:23:00 AM 40.3676 29.8954 311° West  Level Estimated
Sun 06:24:00 AM 40.4238 29.7980 307° West  Level Estimated
Sun 06:25:00 AM 40.4798 29.7004 307° West  Level Estimated
Sun 06:26:00 AM 40.5358 29.6027 307° West  Level Estimated
Sun 06:27:00 AM 40.5916 29.5048 307° West  Level Estimated
Sun 06:28:00 AM 40.6474 29.4067 307° West  Level Estimated
Sun 06:29:00 AM 40.7031 29.3085 307° West  Level Estimated
Sun 06:30:00 AM 40.7588 29.2100 307° West  Level Estimated
Sun 06:31:00 AM 40.8143 29.1115 307° West  Level Estimated
Sun 06:32:00 AM 40.8698 29.0127 307° West  Level Estimated
Sun 06:33:00 AM 40.9251 28.9138 307° West  Level Estimated
Sun 06:34:00 AM 40.9769 28.8211 306° West  Level Estimated
Sun 06:35:00 AM 40.9769 28.8211 21° North  Level Estimated
Sun 06:36:00 AM 40.9769 28.8211 21° North  Level Estimated
Sun 06:37:00 AM 40.9769 28.8211 21° North  Level Estimated
Sun 06:38:00 AM 40.9769 28.8211 21° North  Level Estimated
Sun 06:39:00 AM 40.9769 28.8211 21° North  Level Estimated
Sun 06:40:00 AM 40.9769 28.8211 21° North  Level Estimated
Sun 06:41:00 AM 40.9769 28.8211 21° North  Level Estimated
Sun 06:42:00 AM 40.9769 28.8211 21° North  Level Estimated
Sun 06:43:00 AM 40.9769 28.8211 21° North  Level Estimated
Sun 06:44:00 AM 40.9769 28.8211 21° North  Level Estimated
Sun 06:45:00 AM 40.9769 28.8211 21° North  Level Estimated
Sun 06:46:00 AM 40.9769 28.8211 21° North  Level Estimated
Sun 06:47:00 AM 40.9769 28.8211 21° North  Level Estimated
Sun 06:48:00 AM 40.9769 28.8211 21° North  Level Estimated
Sun 06:49:00 AM 40.9769 28.8211 21° North  Level Estimated
Sun 06:50:00 AM 40.9769 28.8211 21° North  Level Estimated

Login

Don't have an account? Register now (free) for customized features, flight alerts, and more!